Flight Track Log - Related Links

Times and Time Zones

All times are in EST time to prevent confusion due to time zone crossing. See the JZA8813 flight status page for this flight to view local times or setup timezone preferences in your user account.

Time Position Orientation Groundspeed Altitude Reporting Facility
EST Latitude Longitude Course Direction KTS MPH feet Rate Location/Type
05:56PM 46.1500 -60.0500 243° Southwest 120 138 900  Level Moncton Center
05:57PM 46.1333 -60.1000 244° Southwest 140 161 2,500 1,450 Climbing Moncton Center
05:58PM 46.1000 -60.1500 226° Southwest 150 173 3,800 1,400 Climbing Moncton Center
05:59PM 46.0432 -60.3866 243° Southwest  Level Estimated
05:59PM 46.0833 -60.2000 244° Southwest 160 184 5,300  Level Moncton Center
06:00PM 46.0131 -60.4708 243° Southwest  Level FlightAware Approximate
06:00PM 46.0667 -60.2667 250° West 170 196 6,600  Level Moncton Center
06:01PM 45.9829 -60.5549 243° Southwest  Level FlightAware Approximate
06:01PM 46.0333 -60.3167 226° Southwest 170 196 8,000  Level Moncton Center
06:02PM 46.0167 -60.4000 254° West 170 196 9,200 1,000 Climbing Moncton Center
06:03PM 45.9833 -60.4500 226° Southwest 170 196 10,000 400 Climbing Moncton Center
06:04PM 45.9833 -60.5167 270° West 190 219 10,000  Level Moncton Center
06:05PM 45.9500 -60.6000 240° Southwest 210 242 10,000  Level Moncton Center
06:06PM 45.9167 -60.6667 234° Southwest 210 242 10,000  Level Moncton Center
06:07PM 45.9000 -60.7500 254° West 210 242 10,000  Level Moncton Center
06:08PM 45.8667 -60.8167 234° Southwest 210 242 10,000  Level Moncton Center
06:09PM 45.8333 -60.8833 234° Southwest 210 242 10,000  Level Moncton Center
06:10PM 45.8000 -60.9667 240° Southwest 210 242 10,000  Level Moncton Center
06:11PM 45.7833 -61.0667 257° West 220 253 10,000  Level Moncton Center
06:12PM 45.7667 -61.1333 250° West 210 242 10,000  Level Moncton Center
06:13PM 45.7333 -61.2167 240° Southwest 210 242 10,000  Level Moncton Center
06:14PM 45.7000 -61.2833 234° Southwest 220 253 10,000  Level Moncton Center
06:15PM 45.6667 -61.3500 234° Southwest 220 253 10,000  Level Moncton Center
06:16PM 45.6500 -61.4333 254° West 220 253 10,000 50 Level Moncton Center
06:17PM 45.6167 -61.5000 234° Southwest 220 253 10,100 50 Climbing Moncton Center
06:18PM 45.5833 -61.5833 240° Southwest 220 253 10,100  Level Moncton Center
06:19PM 45.5500 -61.6500 234° Southwest 220 253 10,100  Level Moncton Center
06:20PM 45.5333 -61.7500 257° West 220 253 10,100  Level Moncton Center
06:21PM 45.5167 -61.8167 250° West 210 242 10,100  Level Moncton Center
06:22PM 45.4833 -61.9000 240° Southwest 220 253 10,100  Level Moncton Center
06:23PM 45.4500 -61.9667 235° Southwest 220 253 10,100  Level Moncton Center
06:24PM 45.4167 -62.0333 235° Southwest 220 253 10,100  Level Moncton Center
06:25PM 45.3833 -62.1333 245° Southwest 220 253 10,100  Level Moncton Center
06:26PM 45.3667 -62.2000 250° West 220 253 10,100  Level Moncton Center
06:27PM 45.3333 -62.2833 240° Southwest 220 253 10,100  Level Moncton Center
06:28PM 45.3000 -62.3500 235° Southwest 220 253 10,100  Level Moncton Center
06:29PM 45.2667 -62.4167 235° Southwest 220 253 10,100  Level Moncton Center
06:30PM 45.2333 -62.5167 245° Southwest 220 253 10,100  Level Moncton Center
06:31PM 45.2167 -62.6000 254° West 220 253 10,100 -300 Level Moncton Center
06:32PM 45.1833 -62.6667 235° Southwest 220 253 9,500 -800 Descending Moncton Center
06:33PM 45.1500 -62.7333 235° Southwest 240 276 8,500 -1,000 Descending Moncton Center
06:34PM 45.1167 -62.8333 245° Southwest 240 276 7,500 -1,000 Descending Moncton Center
06:35PM 45.0833 -62.9000 235° Southwest 230 265 6,500 -1,050 Descending Moncton Center
06:36PM 45.0333 -62.9833 230° Southwest 220 253 5,400 -1,000 Descending Moncton Center
06:37PM 45.0000 -63.0500 235° Southwest 220 253 4,500 -1,000 Descending Moncton Center
06:38PM 44.9667 -63.1167 235° Southwest 220 253 3,400 -1,000 Descending Moncton Center
06:39PM 44.9333 -63.2000 241° Southwest 220 253 2,500 -700 Descending Moncton Center
06:40PM 44.9167 -63.2667 251° West 210 242 2,000 -300 Descending Moncton Center
06:42PM 44.8667 -63.3833 239° Southwest 170 196 1,600 -300 Descending Moncton Center
06:43PM 44.8500 -63.4333 245° Southwest 120 138 1,100 -450 Descending Moncton Center
06:44PM 44.8667 -63.4833 295° West 100 115 700 -300 Descending Moncton Center
06:45PM 44.8833 -63.5000 325° Northwest 110 127 500 -200 Descending Moncton Center

Login

Don't have an account? Register now (free) for customized features, flight alerts, and more!